sensor_id;sensor_type;location;lat;lon;timestamp;P1;durP1;ratioP1;P2;durP2;ratioP2
23496;SDS011;11925;48.122;11.560;2024-01-06T00:00:15;4.88;;;3.35;;
23496;SDS011;11925;48.122;11.560;2024-01-06T00:02:45;4.05;;;2.83;;
23496;SDS011;11925;48.122;11.560;2024-01-06T00:05:14;5.40;;;2.97;;
23496;SDS011;11925;48.122;11.560;2024-01-06T00:07:42;5.20;;;3.15;;
23496;SDS011;11925;48.122;11.560;2024-01-06T00:10:11;4.47;;;3.03;;
23496;SDS011;11925;48.122;11.560;2024-01-06T00:12:43;5.22;;;3.13;;
23496;SDS011;11925;48.122;11.560;2024-01-06T00:15:12;4.30;;;3.28;;
23496;SDS011;11925;48.122;11.560;2024-01-06T00:17:41;5.00;;;3.42;;
23496;SDS011;11925;48.122;11.560;2024-01-06T00:20:11;5.18;;;3.10;;
23496;SDS011;11925;48.122;11.560;2024-01-06T00:22:40;5.65;;;3.40;;
23496;SDS011;11925;48.122;11.560;2024-01-06T00:25:11;3.85;;;3.10;;
23496;SDS011;11925;48.122;11.560;2024-01-06T00:27:40;4.90;;;3.33;;
23496;SDS011;11925;48.122;11.560;2024-01-06T00:30:09;4.75;;;3.17;;
23496;SDS011;11925;48.122;11.560;2024-01-06T00:32:38;4.18;;;2.90;;
23496;SDS011;11925;48.122;11.560;2024-01-06T00:35:07;3.92;;;2.92;;
23496;SDS011;11925;48.122;11.560;2024-01-06T00:37:37;4.15;;;3.10;;
23496;SDS011;11925;48.122;11.560;2024-01-06T00:40:06;4.80;;;2.97;;
23496;SDS011;11925;48.122;11.560;2024-01-06T00:42:35;4.18;;;2.75;;
23496;SDS011;11925;48.122;11.560;2024-01-06T00:45:04;4.28;;;2.92;;
23496;SDS011;11925;48.122;11.560;2024-01-06T00:47:34;4.65;;;2.30;;
23496;SDS011;11925;48.122;11.560;2024-01-06T00:50:03;3.47;;;2.53;;
23496;SDS011;11925;48.122;11.560;2024-01-06T00:52:32;4.85;;;2.30;;
23496;SDS011;11925;48.122;11.560;2024-01-06T00:55:02;2.67;;;2.20;;
23496;SDS011;11925;48.122;11.560;2024-01-06T00:57:31;2.97;;;1.85;;
23496;SDS011;11925;48.122;11.560;2024-01-06T00:59:59;5.93;;;2.28;;
23496;SDS011;11925;48.122;11.560;2024-01-06T01:02:28;2.55;;;1.98;;
23496;SDS011;11925;48.122;11.560;2024-01-06T01:04:59;2.63;;;2.00;;
23496;SDS011;11925;48.122;11.560;2024-01-06T01:07:28;3.08;;;1.73;;
23496;SDS011;11925;48.122;11.560;2024-01-06T01:09:57;3.47;;;2.00;;
23496;SDS011;11925;48.122;11.560;2024-01-06T01:12:27;2.40;;;1.90;;
23496;SDS011;11925;48.122;11.560;2024-01-06T01:14:56;3.95;;;2.05;;
23496;SDS011;11925;48.122;11.560;2024-01-06T01:17:25;2.85;;;1.40;;
23496;SDS011;11925;48.122;11.560;2024-01-06T01:19:54;3.10;;;1.55;;
23496;SDS011;11925;48.122;11.560;2024-01-06T01:22:22;3.53;;;1.50;;
23496;SDS011;11925;48.122;11.560;2024-01-06T01:24:51;3.72;;;1.70;;
23496;SDS011;11925;48.122;11.560;2024-01-06T01:27:20;2.58;;;1.73;;
23496;SDS011;11925;48.122;11.560;2024-01-06T01:29:51;2.70;;;1.45;;
23496;SDS011;11925;48.122;11.560;2024-01-06T01:32:21;2.65;;;1.65;;
23496;SDS011;11925;48.122;11.560;2024-01-06T01:34:50;3.35;;;2.25;;
23496;SDS011;11925;48.122;11.560;2024-01-06T01:37:19;2.80;;;1.55;;
23496;SDS011;11925;48.122;11.560;2024-01-06T01:39:48;3.15;;;1.80;;
23496;SDS011;11925;48.122;11.560;2024-01-06T01:42:16;2.85;;;1.45;;
23496;SDS011;11925;48.122;11.560;2024-01-06T01:44:45;2.80;;;1.70;;
23496;SDS011;11925;48.122;11.560;2024-01-06T01:47:15;3.50;;;1.80;;
23496;SDS011;11925;48.122;11.560;2024-01-06T01:49:45;2.40;;;1.30;;
23496;SDS011;11925;48.122;11.560;2024-01-06T01:52:14;1.73;;;1.25;;
23496;SDS011;11925;48.122;11.560;2024-01-06T01:54:45;2.22;;;1.08;;
23496;SDS011;11925;48.122;11.560;2024-01-06T01:57:15;2.10;;;1.48;;
23496;SDS011;11925;48.122;11.560;2024-01-06T01:59:44;2.83;;;1.10;;
23496;SDS011;11925;48.122;11.560;2024-01-06T02:02:13;2.83;;;1.00;;
23496;SDS011;11925;48.122;11.560;2024-01-06T02:04:44;3.47;;;0.80;;
23496;SDS011;11925;48.122;11.560;2024-01-06T02:07:13;3.85;;;1.10;;
23496;SDS011;11925;48.122;11.560;2024-01-06T02:09:42;2.15;;;0.70;;
23496;SDS011;11925;48.122;11.560;2024-01-06T02:12:11;1.70;;;0.82;;
23496;SDS011;11925;48.122;11.560;2024-01-06T02:14:39;1.98;;;1.00;;
23496;SDS011;11925;48.122;11.560;2024-01-06T02:17:09;1.20;;;0.70;;
23496;SDS011;11925;48.122;11.560;2024-01-06T02:19:39;2.05;;;0.80;;
23496;SDS011;11925;48.122;11.560;2024-01-06T02:22:10;1.38;;;0.95;;
23496;SDS011;11925;48.122;11.560;2024-01-06T02:24:39;1.65;;;0.75;;
23496;SDS011;11925;48.122;11.560;2024-01-06T02:27:07;2.42;;;1.27;;
23496;SDS011;11925;48.122;11.560;2024-01-06T02:29:36;1.83;;;1.00;;
23496;SDS011;11925;48.122;11.560;2024-01-06T02:32:05;1.67;;;1.10;;
23496;SDS011;11925;48.122;11.560;2024-01-06T02:34:33;2.00;;;1.05;;
23496;SDS011;11925;48.122;11.560;2024-01-06T02:37:05;2.05;;;1.25;;
23496;SDS011;11925;48.122;11.560;2024-01-06T02:39:35;3.00;;;1.13;;
23496;SDS011;11925;48.122;11.560;2024-01-06T02:42:03;2.25;;;1.35;;
23496;SDS011;11925;48.122;11.560;2024-01-06T02:44:33;2.53;;;1.35;;
23496;SDS011;11925;48.122;11.560;2024-01-06T02:47:02;2.75;;;1.30;;
23496;SDS011;11925;48.122;11.560;2024-01-06T02:49:30;4.22;;;1.80;;
23496;SDS011;11925;48.122;11.560;2024-01-06T02:51:59;2.75;;;1.90;;
23496;SDS011;11925;48.122;11.560;2024-01-06T02:54:28;2.38;;;1.25;;
23496;SDS011;11925;48.122;11.560;2024-01-06T02:56:58;2.47;;;1.40;;
23496;SDS011;11925;48.122;11.560;2024-01-06T02:59:26;2.10;;;1.27;;
23496;SDS011;11925;48.122;11.560;2024-01-06T03:01:55;1.95;;;1.05;;
23496;SDS011;11925;48.122;11.560;2024-01-06T03:04:24;2.22;;;1.00;;
23496;SDS011;11925;48.122;11.560;2024-01-06T03:06:52;1.15;;;0.90;;
23496;SDS011;11925;48.122;11.560;2024-01-06T03:09:21;1.98;;;1.13;;
23496;SDS011;11925;48.122;11.560;2024-01-06T03:11:50;1.67;;;1.05;;
23496;SDS011;11925;48.122;11.560;2024-01-06T03:14:20;2.33;;;1.10;;
23496;SDS011;11925;48.122;11.560;2024-01-06T03:16:48;1.77;;;0.90;;
23496;SDS011;11925;48.122;11.560;2024-01-06T03:19:17;2.63;;;1.05;;
23496;SDS011;11925;48.122;11.560;2024-01-06T03:21:46;1.90;;;0.80;;
23496;SDS011;11925;48.122;11.560;2024-01-06T03:24:14;1.73;;;0.90;;
23496;SDS011;11925;48.122;11.560;2024-01-06T03:26:43;1.80;;;0.80;;
23496;SDS011;11925;48.122;11.560;2024-01-06T03:29:11;1.10;;;0.75;;
23496;SDS011;11925;48.122;11.560;2024-01-06T03:31:42;1.48;;;0.60;;
23496;SDS011;11925;48.122;11.560;2024-01-06T03:34:11;1.95;;;0.75;;
23496;SDS011;11925;48.122;11.560;2024-01-06T03:36:41;1.90;;;0.70;;
23496;SDS011;11925;48.122;11.560;2024-01-06T03:39:09;1.70;;;0.70;;
23496;SDS011;11925;48.122;11.560;2024-01-06T03:41:40;1.83;;;0.70;;
23496;SDS011;11925;48.122;11.560;2024-01-06T03:44:08;1.75;;;0.70;;
23496;SDS011;11925;48.122;11.560;2024-01-06T03:46:37;1.92;;;0.80;;
23496;SDS011;11925;48.122;11.560;2024-01-06T03:49:07;1.98;;;0.63;;
23496;SDS011;11925;48.122;11.560;2024-01-06T03:51:35;2.05;;;0.60;;
23496;SDS011;11925;48.122;11.560;2024-01-06T03:54:04;1.17;;;0.70;;
23496;SDS011;11925;48.122;11.560;2024-01-06T03:56:33;1.42;;;0.70;;
23496;SDS011;11925;48.122;11.560;2024-01-06T03:59:01;1.10;;;0.80;;
23496;SDS011;11925;48.122;11.560;2024-01-06T04:01:30;2.22;;;0.93;;
23496;SDS011;11925;48.122;11.560;2024-01-06T04:04:01;1.08;;;0.50;;
23496;SDS011;11925;48.122;11.560;2024-01-06T04:06:32;1.40;;;0.80;;
23496;SDS011;11925;48.122;11.560;2024-01-06T04:09:01;1.40;;;0.80;;
23496;SDS011;11925;48.122;11.560;2024-01-06T04:11:29;1.20;;;0.73;;
23496;SDS011;11925;48.122;11.560;2024-01-06T04:13:58;1.80;;;0.93;;
23496;SDS011;11925;48.122;11.560;2024-01-06T04:16:26;2.17;;;1.10;;
23496;SDS011;11925;48.122;11.560;2024-01-06T04:18:55;1.75;;;1.10;;
23496;SDS011;11925;48.122;11.560;2024-01-06T04:21:24;1.90;;;1.35;;
23496;SDS011;11925;48.122;11.560;2024-01-06T04:23:54;2.10;;;1.10;;
23496;SDS011;11925;48.122;11.560;2024-01-06T04:26:23;2.38;;;1.20;;
23496;SDS011;11925;48.122;11.560;2024-01-06T04:28:52;1.27;;;0.80;;
23496;SDS011;11925;48.122;11.560;2024-01-06T04:31:20;1.23;;;0.80;;
23496;SDS011;11925;48.122;11.560;2024-01-06T04:33:49;1.42;;;0.60;;
23496;SDS011;11925;48.122;11.560;2024-01-06T04:36:18;1.13;;;0.60;;
23496;SDS011;11925;48.122;11.560;2024-01-06T04:38:47;1.02;;;0.70;;
23496;SDS011;11925;48.122;11.560;2024-01-06T04:41:16;0.80;;;0.80;;
23496;SDS011;11925;48.122;11.560;2024-01-06T04:43:45;0.82;;;0.60;;
23496;SDS011;11925;48.122;11.560;2024-01-06T04:46:17;1.25;;;0.57;;
23496;SDS011;11925;48.122;11.560;2024-01-06T04:51:14;1.35;;;0.40;;
23496;SDS011;11925;48.122;11.560;2024-01-06T04:53:43;0.40;;;0.40;;
23496;SDS011;11925;48.122;11.560;2024-01-06T04:56:11;0.47;;;0.35;;
23496;SDS011;11925;48.122;11.560;2024-01-06T04:58:42;0.90;;;0.32;;
23496;SDS011;11925;48.122;11.560;2024-01-06T05:01:10;0.30;;;0.30;;
23496;SDS011;11925;48.122;11.560;2024-01-06T05:03:40;0.32;;;0.13;;
23496;SDS011;11925;48.122;11.560;2024-01-06T05:06:09;0.40;;;0.30;;
23496;SDS011;11925;48.122;11.560;2024-01-06T05:08:37;0.25;;;0.20;;
23496;SDS011;11925;48.122;11.560;2024-01-06T05:11:11;0.80;;;0.30;;
23496;SDS011;11925;48.122;11.560;2024-01-06T05:13:41;1.08;;;0.38;;
23496;SDS011;11925;48.122;11.560;2024-01-06T05:16:10;0.47;;;0.30;;
23496;SDS011;11925;48.122;11.560;2024-01-06T05:18:38;0.25;;;0.20;;
23496;SDS011;11925;48.122;11.560;2024-01-06T05:21:08;0.52;;;0.20;;
23496;SDS011;11925;48.122;11.560;2024-01-06T05:23:37;0.60;;;0.40;;
23496;SDS011;11925;48.122;11.560;2024-01-06T05:26:06;0.32;;;0.22;;
23496;SDS011;11925;48.122;11.560;2024-01-06T05:28:35;0.20;;;0.20;;
23496;SDS011;11925;48.122;11.560;2024-01-06T05:31:05;0.50;;;0.30;;
23496;SDS011;11925;48.122;11.560;2024-01-06T05:33:34;0.20;;;0.20;;
23496;SDS011;11925;48.122;11.560;2024-01-06T05:36:03;0.50;;;0.20;;
23496;SDS011;11925;48.122;11.560;2024-01-06T05:38:32;1.25;;;0.20;;
23496;SDS011;11925;48.122;11.560;2024-01-06T05:41:01;0.30;;;0.30;;
23496;SDS011;11925;48.122;11.560;2024-01-06T05:43:29;1.00;;;0.90;;
23496;SDS011;11925;48.122;11.560;2024-01-06T05:45:58;0.80;;;0.30;;
23496;SDS011;11925;48.122;11.560;2024-01-06T05:48:28;0.30;;;0.30;;
23496;SDS011;11925;48.122;11.560;2024-01-06T05:50:57;0.40;;;0.20;;
23496;SDS011;11925;48.122;11.560;2024-01-06T05:53:25;0.43;;;0.30;;
23496;SDS011;11925;48.122;11.560;2024-01-06T05:55:53;0.80;;;0.38;;
23496;SDS011;11925;48.122;11.560;2024-01-06T05:58:22;0.43;;;0.40;;
23496;SDS011;11925;48.122;11.560;2024-01-06T06:00:50;0.50;;;0.40;;
23496;SDS011;11925;48.122;11.560;2024-01-06T06:03:19;0.88;;;0.40;;
23496;SDS011;11925;48.122;11.560;2024-01-06T06:05:49;1.58;;;0.40;;
23496;SDS011;11925;48.122;11.560;2024-01-06T06:08:18;1.23;;;0.57;;
23496;SDS011;11925;48.122;11.560;2024-01-06T06:10:46;1.52;;;0.60;;
23496;SDS011;11925;48.122;11.560;2024-01-06T06:13:28;1.98;;;0.70;;
23496;SDS011;11925;48.122;11.560;2024-01-06T06:15:57;1.63;;;0.80;;
23496;SDS011;11925;48.122;11.560;2024-01-06T06:18:25;1.20;;;0.70;;
23496;SDS011;11925;48.122;11.560;2024-01-06T06:20:55;1.17;;;0.52;;
23496;SDS011;11925;48.122;11.560;2024-01-06T06:23:24;1.35;;;0.73;;
23496;SDS011;11925;48.122;11.560;2024-01-06T06:25:52;1.30;;;0.68;;
23496;SDS011;11925;48.122;11.560;2024-01-06T06:28:20;0.90;;;0.63;;
23496;SDS011;11925;48.122;11.560;2024-01-06T06:30:49;2.25;;;0.77;;
23496;SDS011;11925;48.122;11.560;2024-01-06T06:33:17;1.73;;;0.82;;
23496;SDS011;11925;48.122;11.560;2024-01-06T06:35:46;1.13;;;0.60;;
23496;SDS011;11925;48.122;11.560;2024-01-06T06:38:16;2.13;;;0.80;;
23496;SDS011;11925;48.122;11.560;2024-01-06T06:40:44;1.33;;;0.90;;
23496;SDS011;11925;48.122;11.560;2024-01-06T06:43:13;1.83;;;0.80;;
23496;SDS011;11925;48.122;11.560;2024-01-06T06:45:45;2.30;;;0.90;;
23496;SDS011;11925;48.122;11.560;2024-01-06T06:48:14;1.90;;;1.00;;
23496;SDS011;11925;48.122;11.560;2024-01-06T06:50:42;1.77;;;0.82;;
23496;SDS011;11925;48.122;11.560;2024-01-06T06:53:11;2.47;;;1.10;;
23496;SDS011;11925;48.122;11.560;2024-01-06T06:55:41;2.05;;;1.10;;
23496;SDS011;11925;48.122;11.560;2024-01-06T06:58:10;1.10;;;0.98;;
23496;SDS011;11925;48.122;11.560;2024-01-06T07:00:38;2.10;;;0.80;;
23496;SDS011;11925;48.122;11.560;2024-01-06T07:03:07;1.23;;;0.70;;
23496;SDS011;11925;48.122;11.560;2024-01-06T07:05:35;1.50;;;0.80;;
23496;SDS011;11925;48.122;11.560;2024-01-06T07:08:05;2.55;;;0.80;;
23496;SDS011;11925;48.122;11.560;2024-01-06T07:10:34;1.58;;;0.88;;
23496;SDS011;11925;48.122;11.560;2024-01-06T07:13:04;1.30;;;0.60;;
23496;SDS011;11925;48.122;11.560;2024-01-06T07:15:33;1.92;;;0.85;;
23496;SDS011;11925;48.122;11.560;2024-01-06T07:18:01;1.77;;;0.80;;
23496;SDS011;11925;48.122;11.560;2024-01-06T07:20:30;0.98;;;0.75;;
23496;SDS011;11925;48.122;11.560;2024-01-06T07:22:58;3.42;;;0.93;;
23496;SDS011;11925;48.122;11.560;2024-01-06T07:25:27;2.28;;;0.90;;
23496;SDS011;11925;48.122;11.560;2024-01-06T07:27:56;2.55;;;0.70;;
23496;SDS011;11925;48.122;11.560;2024-01-06T07:30:26;1.90;;;0.80;;
23496;SDS011;11925;48.122;11.560;2024-01-06T07:32:56;2.40;;;1.00;;
23496;SDS011;11925;48.122;11.560;2024-01-06T07:35:25;1.25;;;1.15;;
23496;SDS011;11925;48.122;11.560;2024-01-06T07:37:54;2.00;;;1.10;;
23496;SDS011;11925;48.122;11.560;2024-01-06T07:40:23;1.75;;;0.80;;
23496;SDS011;11925;48.122;11.560;2024-01-06T07:42:52;1.23;;;0.73;;
23496;SDS011;11925;48.122;11.560;2024-01-06T07:45:20;2.53;;;0.93;;
23496;SDS011;11925;48.122;11.560;2024-01-06T07:47:51;3.97;;;1.60;;
23496;SDS011;11925;48.122;11.560;2024-01-06T07:50:20;2.83;;;1.00;;
23496;SDS011;11925;48.122;11.560;2024-01-06T07:52:48;4.05;;;2.58;;
23496;SDS011;11925;48.122;11.560;2024-01-06T07:55:17;12.35;;;8.65;;
23496;SDS011;11925;48.122;11.560;2024-01-06T07:57:45;5.00;;;3.05;;
23496;SDS011;11925;48.122;11.560;2024-01-06T08:00:14;3.22;;;2.47;;
23496;SDS011;11925;48.122;11.560;2024-01-06T08:02:43;4.13;;;1.90;;
23496;SDS011;11925;48.122;11.560;2024-01-06T08:05:13;1.83;;;1.40;;
23496;SDS011;11925;48.122;11.560;2024-01-06T08:07:42;2.75;;;1.70;;
23496;SDS011;11925;48.122;11.560;2024-01-06T08:10:10;3.22;;;1.35;;
23496;SDS011;11925;48.122;11.560;2024-01-06T08:12:39;2.63;;;1.38;;
23496;SDS011;11925;48.122;11.560;2024-01-06T08:15:07;2.25;;;1.20;;
23496;SDS011;11925;48.122;11.560;2024-01-06T08:17:37;3.00;;;1.27;;
23496;SDS011;11925;48.122;11.560;2024-01-06T08:20:08;3.42;;;1.30;;
23496;SDS011;11925;48.122;11.560;2024-01-06T08:22:38;3.65;;;1.55;;
23496;SDS011;11925;48.122;11.560;2024-01-06T08:25:06;2.20;;;1.20;;
23496;SDS011;11925;48.122;11.560;2024-01-06T08:27:35;3.53;;;1.30;;
23496;SDS011;11925;48.122;11.560;2024-01-06T08:30:04;1.92;;;1.27;;
23496;SDS011;11925;48.122;11.560;2024-01-06T08:32:34;2.30;;;1.30;;
23496;SDS011;11925;48.122;11.560;2024-01-06T08:35:03;1.95;;;1.08;;
23496;SDS011;11925;48.122;11.560;2024-01-06T08:37:32;3.17;;;1.20;;
23496;SDS011;11925;48.122;11.560;2024-01-06T08:40:02;2.22;;;1.13;;
23496;SDS011;11925;48.122;11.560;2024-01-06T08:42:33;3.55;;;1.23;;
23496;SDS011;11925;48.122;11.560;2024-01-06T08:45:02;1.60;;;1.00;;
23496;SDS011;11925;48.122;11.560;2024-01-06T08:47:31;3.50;;;0.88;;
23496;SDS011;11925;48.122;11.560;2024-01-06T08:50:00;2.63;;;0.93;;
23496;SDS011;11925;48.122;11.560;2024-01-06T08:52:28;2.70;;;0.82;;
23496;SDS011;11925;48.122;11.560;2024-01-06T08:54:57;3.17;;;1.00;;
23496;SDS011;11925;48.122;11.560;2024-01-06T08:57:27;2.72;;;1.08;;
23496;SDS011;11925;48.122;11.560;2024-01-06T08:59:55;2.50;;;0.98;;
23496;SDS011;11925;48.122;11.560;2024-01-06T09:02:24;2.85;;;1.20;;
23496;SDS011;11925;48.122;11.560;2024-01-06T09:04:52;2.38;;;1.17;;
23496;SDS011;11925;48.122;11.560;2024-01-06T09:07:21;3.40;;;1.30;;
23496;SDS011;11925;48.122;11.560;2024-01-06T09:09:49;3.15;;;1.23;;
23496;SDS011;11925;48.122;11.560;2024-01-06T09:12:18;2.80;;;1.55;;
23496;SDS011;11925;48.122;11.560;2024-01-06T09:14:48;2.97;;;1.27;;
23496;SDS011;11925;48.122;11.560;2024-01-06T09:17:17;3.38;;;1.30;;
23496;SDS011;11925;48.122;11.560;2024-01-06T09:19:46;2.70;;;1.10;;
23496;SDS011;11925;48.122;11.560;2024-01-06T09:22:15;2.25;;;1.00;;
23496;SDS011;11925;48.122;11.560;2024-01-06T09:24:43;4.70;;;1.25;;
23496;SDS011;11925;48.122;11.560;2024-01-06T09:27:12;2.88;;;1.20;;
23496;SDS011;11925;48.122;11.560;2024-01-06T09:29:41;2.83;;;1.08;;
23496;SDS011;11925;48.122;11.560;2024-01-06T09:32:11;2.65;;;1.17;;
23496;SDS011;11925;48.122;11.560;2024-01-06T09:34:40;4.00;;;1.10;;
23496;SDS011;11925;48.122;11.560;2024-01-06T09:37:09;2.50;;;1.10;;
23496;SDS011;11925;48.122;11.560;2024-01-06T09:39:37;3.50;;;1.33;;
23496;SDS011;11925;48.122;11.560;2024-01-06T09:42:06;3.25;;;1.67;;
23496;SDS011;11925;48.122;11.560;2024-01-06T09:44:35;4.05;;;1.50;;
23496;SDS011;11925;48.122;11.560;2024-01-06T09:47:04;4.85;;;1.33;;
23496;SDS011;11925;48.122;11.560;2024-01-06T09:49:34;4.65;;;1.23;;
23496;SDS011;11925;48.122;11.560;2024-01-06T09:52:11;3.58;;;1.40;;
23496;SDS011;11925;48.122;11.560;2024-01-06T09:54:44;3.70;;;1.33;;
23496;SDS011;11925;48.122;11.560;2024-01-06T09:57:22;2.28;;;1.45;;
23496;SDS011;11925;48.122;11.560;2024-01-06T09:59:51;5.20;;;1.65;;
23496;SDS011;11925;48.122;11.560;2024-01-06T10:02:20;5.07;;;1.50;;
23496;SDS011;11925;48.122;11.560;2024-01-06T10:04:51;3.95;;;1.42;;
23496;SDS011;11925;48.122;11.560;2024-01-06T10:07:19;3.22;;;1.30;;
23496;SDS011;11925;48.122;11.560;2024-01-06T10:09:48;3.88;;;1.60;;
23496;SDS011;11925;48.122;11.560;2024-01-06T10:12:16;2.97;;;1.13;;
23496;SDS011;11925;48.122;11.560;2024-01-06T10:14:45;2.97;;;1.80;;
23496;SDS011;11925;48.122;11.560;2024-01-06T10:17:13;4.57;;;1.63;;
23496;SDS011;11925;48.122;11.560;2024-01-06T10:19:43;3.70;;;1.40;;
23496;SDS011;11925;48.122;11.560;2024-01-06T10:22:14;3.67;;;1.40;;
23496;SDS011;11925;48.122;11.560;2024-01-06T10:24:43;4.13;;;1.80;;
23496;SDS011;11925;48.122;11.560;2024-01-06T10:27:12;3.33;;;1.50;;
23496;SDS011;11925;48.122;11.560;2024-01-06T10:29:40;3.70;;;1.42;;
23496;SDS011;11925;48.122;11.560;2024-01-06T10:32:09;4.15;;;1.83;;
23496;SDS011;11925;48.122;11.560;2024-01-06T10:34:37;3.85;;;1.67;;
23496;SDS011;11925;48.122;11.560;2024-01-06T10:37:06;4.03;;;2.13;;
23496;SDS011;11925;48.122;11.560;2024-01-06T10:39:36;3.75;;;1.75;;
23496;SDS011;11925;48.122;11.560;2024-01-06T10:42:04;3.00;;;1.70;;
23496;SDS011;11925;48.122;11.560;2024-01-06T10:44:35;7.33;;;1.90;;
23496;SDS011;11925;48.122;11.560;2024-01-06T10:47:10;3.13;;;1.58;;
23496;SDS011;11925;48.122;11.560;2024-01-06T10:49:41;5.73;;;2.10;;
23496;SDS011;11925;48.122;11.560;2024-01-06T10:52:11;6.63;;;2.47;;
23496;SDS011;11925;48.122;11.560;2024-01-06T10:54:41;4.55;;;2.17;;
23496;SDS011;11925;48.122;11.560;2024-01-06T10:57:11;4.45;;;1.70;;
23496;SDS011;11925;48.122;11.560;2024-01-06T10:59:40;4.45;;;2.28;;
23496;SDS011;11925;48.122;11.560;2024-01-06T11:02:09;3.45;;;1.90;;
23496;SDS011;11925;48.122;11.560;2024-01-06T11:04:40;4.78;;;2.03;;
23496;SDS011;11925;48.122;11.560;2024-01-06T11:07:09;5.63;;;2.15;;
23496;SDS011;11925;48.122;11.560;2024-01-06T11:09:39;4.32;;;1.85;;
23496;SDS011;11925;48.122;11.560;2024-01-06T11:12:14;3.42;;;1.92;;
23496;SDS011;11925;48.122;11.560;2024-01-06T11:14:43;5.63;;;1.80;;
23496;SDS011;11925;48.122;11.560;2024-01-06T11:17:12;5.20;;;1.77;;
23496;SDS011;11925;48.122;11.560;2024-01-06T11:19:44;6.20;;;1.98;;
23496;SDS011;11925;48.122;11.560;2024-01-06T11:22:18;4.25;;;2.05;;
23496;SDS011;11925;48.122;11.560;2024-01-06T11:24:49;6.15;;;1.77;;
23496;SDS011;11925;48.122;11.560;2024-01-06T11:27:20;2.38;;;1.60;;
23496;SDS011;11925;48.122;11.560;2024-01-06T11:29:50;3.72;;;2.03;;
23496;SDS011;11925;48.122;11.560;2024-01-06T11:32:25;4.40;;;1.73;;
23496;SDS011;11925;48.122;11.560;2024-01-06T11:34:55;4.57;;;2.05;;
23496;SDS011;11925;48.122;11.560;2024-01-06T11:37:34;6.15;;;2.00;;
23496;SDS011;11925;48.122;11.560;2024-01-06T11:40:07;4.75;;;2.00;;
23496;SDS011;11925;48.122;11.560;2024-01-06T11:42:41;4.47;;;2.38;;
23496;SDS011;11925;48.122;11.560;2024-01-06T11:45:09;4.75;;;2.20;;
23496;SDS011;11925;48.122;11.560;2024-01-06T11:47:38;4.18;;;2.03;;
23496;SDS011;11925;48.122;11.560;2024-01-06T11:50:08;6.13;;;1.92;;
23496;SDS011;11925;48.122;11.560;2024-01-06T11:52:37;3.35;;;1.95;;
23496;SDS011;11925;48.122;11.560;2024-01-06T11:55:07;4.75;;;2.22;;
23496;SDS011;11925;48.122;11.560;2024-01-06T11:57:37;5.85;;;2.50;;
23496;SDS011;11925;48.122;11.560;2024-01-06T12:00:06;4.80;;;2.58;;
23496;SDS011;11925;48.122;11.560;2024-01-06T12:02:35;5.50;;;2.20;;
23496;SDS011;11925;48.122;11.560;2024-01-06T12:05:04;8.38;;;2.85;;
23496;SDS011;11925;48.122;11.560;2024-01-06T12:07:33;5.85;;;2.60;;
23496;SDS011;11925;48.122;11.560;2024-01-06T12:10:02;4.00;;;2.90;;
23496;SDS011;11925;48.122;11.560;2024-01-06T12:12:33;6.88;;;3.15;;
23496;SDS011;11925;48.122;11.560;2024-01-06T12:15:01;5.38;;;3.15;;
23496;SDS011;11925;48.122;11.560;2024-01-06T12:17:30;6.15;;;2.88;;
23496;SDS011;11925;48.122;11.560;2024-01-06T12:19:59;5.78;;;2.92;;
23496;SDS011;11925;48.122;11.560;2024-01-06T12:22:28;14.75;;;7.68;;
23496;SDS011;11925;48.122;11.560;2024-01-06T12:24:58;8.55;;;3.42;;
23496;SDS011;11925;48.122;11.560;2024-01-06T12:27:27;11.43;;;4.28;;
23496;SDS011;11925;48.122;11.560;2024-01-06T12:29:57;11.20;;;4.68;;
23496;SDS011;11925;48.122;11.560;2024-01-06T12:32:25;5.85;;;3.72;;
23496;SDS011;11925;48.122;11.560;2024-01-06T12:34:54;6.68;;;4.03;;
23496;SDS011;11925;48.122;11.560;2024-01-06T12:37:23;7.18;;;3.42;;
23496;SDS011;11925;48.122;11.560;2024-01-06T12:39:52;7.40;;;3.15;;
23496;SDS011;11925;48.122;11.560;2024-01-06T12:42:20;6.55;;;3.45;;
23496;SDS011;11925;48.122;11.560;2024-01-06T12:44:50;5.50;;;2.65;;
23496;SDS011;11925;48.122;11.560;2024-01-06T12:47:20;7.30;;;3.15;;
23496;SDS011;11925;48.122;11.560;2024-01-06T12:49:49;5.45;;;2.80;;
23496;SDS011;11925;48.122;11.560;2024-01-06T12:52:17;6.07;;;2.58;;
23496;SDS011;11925;48.122;11.560;2024-01-06T12:54:46;5.80;;;2.58;;
23496;SDS011;11925;48.122;11.560;2024-01-06T12:57:14;4.05;;;2.35;;
23496;SDS011;11925;48.122;11.560;2024-01-06T12:59:43;5.68;;;2.20;;
23496;SDS011;11925;48.122;11.560;2024-01-06T13:02:12;6.45;;;2.45;;
23496;SDS011;11925;48.122;11.560;2024-01-06T13:04:41;3.17;;;2.15;;
23496;SDS011;11925;48.122;11.560;2024-01-06T13:07:10;6.85;;;2.15;;
23496;SDS011;11925;48.122;11.560;2024-01-06T13:09:39;4.13;;;2.03;;
23496;SDS011;11925;48.122;11.560;2024-01-06T13:12:07;4.60;;;1.77;;
23496;SDS011;11925;48.122;11.560;2024-01-06T13:14:37;5.15;;;2.28;;
23496;SDS011;11925;48.122;11.560;2024-01-06T13:17:05;2.90;;;1.90;;
23496;SDS011;11925;48.122;11.560;2024-01-06T13:19:35;2.30;;;1.70;;
23496;SDS011;11925;48.122;11.560;2024-01-06T13:22:05;5.70;;;1.85;;
23496;SDS011;11925;48.122;11.560;2024-01-06T13:24:34;4.28;;;1.60;;
23496;SDS011;11925;48.122;11.560;2024-01-06T13:27:03;3.83;;;1.60;;
23496;SDS011;11925;48.122;11.560;2024-01-06T13:29:31;2.53;;;1.63;;
23496;SDS011;11925;48.122;11.560;2024-01-06T13:32:00;3.10;;;1.60;;
23496;SDS011;11925;48.122;11.560;2024-01-06T13:34:29;3.83;;;1.50;;
23496;SDS011;11925;48.122;11.560;2024-01-06T13:36:57;3.53;;;1.48;;
23496;SDS011;11925;48.122;11.560;2024-01-06T13:39:27;3.22;;;1.30;;
23496;SDS011;11925;48.122;11.560;2024-01-06T13:41:57;3.50;;;1.70;;
23496;SDS011;11925;48.122;11.560;2024-01-06T13:44:25;2.97;;;1.60;;
23496;SDS011;11925;48.122;11.560;2024-01-06T13:46:54;2.05;;;1.20;;
23496;SDS011;11925;48.122;11.560;2024-01-06T13:49:22;4.05;;;1.45;;
23496;SDS011;11925;48.122;11.560;2024-01-06T13:51:51;3.88;;;1.65;;
23496;SDS011;11925;48.122;11.560;2024-01-06T13:54:20;3.00;;;1.35;;
23496;SDS011;11925;48.122;11.560;2024-01-06T13:56:50;3.75;;;1.75;;
23496;SDS011;11925;48.122;11.560;2024-01-06T13:59:18;4.75;;;1.70;;
23496;SDS011;11925;48.122;11.560;2024-01-06T14:01:46;3.55;;;1.42;;
23496;SDS011;11925;48.122;11.560;2024-01-06T14:04:15;3.38;;;1.45;;
23496;SDS011;11925;48.122;11.560;2024-01-06T14:06:44;2.47;;;1.50;;
23496;SDS011;11925;48.122;11.560;2024-01-06T14:09:14;3.58;;;1.80;;
23496;SDS011;11925;48.122;11.560;2024-01-06T14:11:43;3.35;;;1.65;;
23496;SDS011;11925;48.122;11.560;2024-01-06T14:14:13;4.22;;;1.77;;
23496;SDS011;11925;48.122;11.560;2024-01-06T14:16:42;3.83;;;1.80;;
23496;SDS011;11925;48.122;11.560;2024-01-06T14:19:13;2.08;;;1.50;;
23496;SDS011;11925;48.122;11.560;2024-01-06T14:21:42;3.75;;;1.80;;
23496;SDS011;11925;48.122;11.560;2024-01-06T14:24:10;3.40;;;2.00;;
23496;SDS011;11925;48.122;11.560;2024-01-06T14:26:39;2.58;;;1.63;;
23496;SDS011;11925;48.122;11.560;2024-01-06T14:29:09;3.67;;;1.50;;
23496;SDS011;11925;48.122;11.560;2024-01-06T14:31:39;3.72;;;2.00;;
23496;SDS011;11925;48.122;11.560;2024-01-06T14:34:12;3.70;;;2.00;;
23496;SDS011;11925;48.122;11.560;2024-01-06T14:36:41;4.65;;;2.00;;
23496;SDS011;11925;48.122;11.560;2024-01-06T14:39:14;5.47;;;2.03;;
23496;SDS011;11925;48.122;11.560;2024-01-06T14:41:45;3.42;;;2.13;;
23496;SDS011;11925;48.122;11.560;2024-01-06T14:44:14;3.20;;;1.83;;
23496;SDS011;11925;48.122;11.560;2024-01-06T14:46:44;3.83;;;2.10;;